logo
Search for airport 
image banner adimage banner adimage banner ad
image banner ad

WADY - Banyuwangi / Banyuwangi

Located in Banyuwangi, Indonesia

ICAO - , IATA - BWX

Data provided by Airmate  

General information

Coordinates: S8°18'38" E114°20'25"
Elevation is 120 feet MSL.
 
View others Airports in Jawa Timur

Operational data

Special qualification required
Current time UTC:
Current local time:
Weather at : - ( 0 km )
METAR: CYAT 152231Z AUTO 34010G19KT 7SM -SNRA SCT013 SCT019 SCT024 OVC032 01/M00 A2996 RMK SLP149
View NOTAMs / SUP AIP / TFR affecting this airport [VIEW]
Communications frequencies: [VIEW]

Runways:

RWY identifierQFULength (ft)Width (ft)SurfaceLDA (ft)
0881°8038148UNK
26261°8038148UNK

Airport contact information

Address: Banyuwangi Indonesia

Satellite view of WADY